sensor_id;sensor_type;location;lat;lon;timestamp;P1;durP1;ratioP1;P2;durP2;ratioP2
8474;SDS011;4274;52.012;8.448;2022-08-21T00:02:23;53.80;;;3.70;;
8474;SDS011;4274;52.012;8.448;2022-08-21T00:04:50;48.33;;;3.47;;
8474;SDS011;4274;52.012;8.448;2022-08-21T00:07:17;51.70;;;3.83;;
8474;SDS011;4274;52.012;8.448;2022-08-21T00:09:44;50.13;;;3.70;;
8474;SDS011;4274;52.012;8.448;2022-08-21T00:12:10;46.90;;;3.43;;
8474;SDS011;4274;52.012;8.448;2022-08-21T00:14:36;50.10;;;4.37;;
8474;SDS011;4274;52.012;8.448;2022-08-21T00:17:03;49.90;;;4.60;;
8474;SDS011;4274;52.012;8.448;2022-08-21T00:19:29;52.33;;;4.80;;
8474;SDS011;4274;52.012;8.448;2022-08-21T00:21:56;50.53;;;4.40;;
8474;SDS011;4274;52.012;8.448;2022-08-21T00:24:22;54.20;;;5.13;;
8474;SDS011;4274;52.012;8.448;2022-08-21T00:26:48;54.40;;;4.53;;
8474;SDS011;4274;52.012;8.448;2022-08-21T00:29:14;49.70;;;5.27;;
8474;SDS011;4274;52.012;8.448;2022-08-21T00:31:40;52.37;;;5.23;;
8474;SDS011;4274;52.012;8.448;2022-08-21T00:34:07;53.10;;;5.50;;
8474;SDS011;4274;52.012;8.448;2022-08-21T00:36:34;53.10;;;6.20;;
8474;SDS011;4274;52.012;8.448;2022-08-21T00:39:00;54.40;;;5.93;;
8474;SDS011;4274;52.012;8.448;2022-08-21T00:41:27;54.33;;;5.80;;
8474;SDS011;4274;52.012;8.448;2022-08-21T00:43:53;51.10;;;5.10;;
8474;SDS011;4274;52.012;8.448;2022-08-21T00:46:19;51.40;;;6.30;;
8474;SDS011;4274;52.012;8.448;2022-08-21T00:48:45;49.60;;;5.77;;
8474;SDS011;4274;52.012;8.448;2022-08-21T00:51:12;56.27;;;6.70;;
8474;SDS011;4274;52.012;8.448;2022-08-21T00:53:43;54.67;;;6.77;;
8474;SDS011;4274;52.012;8.448;2022-08-21T00:56:10;53.77;;;5.80;;
8474;SDS011;4274;52.012;8.448;2022-08-21T00:58:39;57.30;;;5.60;;
8474;SDS011;4274;52.012;8.448;2022-08-21T01:01:06;55.23;;;6.80;;
8474;SDS011;4274;52.012;8.448;2022-08-21T01:03:33;59.93;;;5.97;;
8474;SDS011;4274;52.012;8.448;2022-08-21T01:05:59;55.00;;;6.57;;
8474;SDS011;4274;52.012;8.448;2022-08-21T01:08:26;51.50;;;6.20;;
8474;SDS011;4274;52.012;8.448;2022-08-21T01:10:54;52.80;;;5.80;;
8474;SDS011;4274;52.012;8.448;2022-08-21T01:13:20;66.30;;;7.43;;
8474;SDS011;4274;52.012;8.448;2022-08-21T01:15:48;50.47;;;5.60;;
8474;SDS011;4274;52.012;8.448;2022-08-21T01:18:17;50.17;;;6.10;;
8474;SDS011;4274;52.012;8.448;2022-08-21T01:20:51;52.50;;;6.10;;
8474;SDS011;4274;52.012;8.448;2022-08-21T01:23:38;59.50;;;8.10;;
8474;SDS011;4274;52.012;8.448;2022-08-21T01:26:08;52.77;;;6.43;;
8474;SDS011;4274;52.012;8.448;2022-08-21T01:28:36;57.43;;;7.60;;
8474;SDS011;4274;52.012;8.448;2022-08-21T01:31:06;51.37;;;8.00;;
8474;SDS011;4274;52.012;8.448;2022-08-21T01:33:33;54.67;;;9.40;;
8474;SDS011;4274;52.012;8.448;2022-08-21T01:35:59;62.17;;;11.27;;
8474;SDS011;4274;52.012;8.448;2022-08-21T01:38:26;62.40;;;12.40;;
8474;SDS011;4274;52.012;8.448;2022-08-21T01:40:52;58.37;;;11.20;;
8474;SDS011;4274;52.012;8.448;2022-08-21T01:43:17;62.33;;;11.47;;
8474;SDS011;4274;52.012;8.448;2022-08-21T01:45:43;59.90;;;10.40;;
8474;SDS011;4274;52.012;8.448;2022-08-21T01:48:09;61.77;;;12.83;;
8474;SDS011;4274;52.012;8.448;2022-08-21T01:50:34;63.27;;;12.23;;
8474;SDS011;4274;52.012;8.448;2022-08-21T01:53:00;62.37;;;12.63;;
8474;SDS011;4274;52.012;8.448;2022-08-21T01:55:26;61.57;;;11.97;;
8474;SDS011;4274;52.012;8.448;2022-08-21T01:57:52;54.30;;;9.73;;
8474;SDS011;4274;52.012;8.448;2022-08-21T02:00:19;61.43;;;13.43;;
8474;SDS011;4274;52.012;8.448;2022-08-21T02:02:48;59.03;;;12.97;;
8474;SDS011;4274;52.012;8.448;2022-08-21T02:05:14;64.90;;;13.33;;
8474;SDS011;4274;52.012;8.448;2022-08-21T02:07:42;57.40;;;12.90;;
8474;SDS011;4274;52.012;8.448;2022-08-21T02:10:11;56.20;;;11.07;;
8474;SDS011;4274;52.012;8.448;2022-08-21T02:12:39;59.10;;;13.27;;
8474;SDS011;4274;52.012;8.448;2022-08-21T02:15:05;56.47;;;12.23;;
8474;SDS011;4274;52.012;8.448;2022-08-21T02:17:39;59.33;;;12.77;;
8474;SDS011;4274;52.012;8.448;2022-08-21T02:20:18;57.13;;;12.10;;
8474;SDS011;4274;52.012;8.448;2022-08-21T02:23:05;59.67;;;11.93;;
8474;SDS011;4274;52.012;8.448;2022-08-21T02:25:32;58.10;;;11.80;;
8474;SDS011;4274;52.012;8.448;2022-08-21T02:27:59;58.80;;;11.00;;
8474;SDS011;4274;52.012;8.448;2022-08-21T02:30:33;59.83;;;10.73;;
8474;SDS011;4274;52.012;8.448;2022-08-21T02:33:03;57.63;;;12.20;;
8474;SDS011;4274;52.012;8.448;2022-08-21T02:35:29;57.90;;;11.37;;
8474;SDS011;4274;52.012;8.448;2022-08-21T02:37:59;59.53;;;12.13;;
8474;SDS011;4274;52.012;8.448;2022-08-21T02:40:28;52.70;;;9.63;;
8474;SDS011;4274;52.012;8.448;2022-08-21T02:42:56;62.70;;;12.70;;
8474;SDS011;4274;52.012;8.448;2022-08-21T02:45:23;61.33;;;14.53;;
8474;SDS011;4274;52.012;8.448;2022-08-21T02:47:50;60.97;;;13.60;;
8474;SDS011;4274;52.012;8.448;2022-08-21T02:50:18;60.57;;;13.90;;
8474;SDS011;4274;52.012;8.448;2022-08-21T02:52:49;59.90;;;12.63;;
8474;SDS011;4274;52.012;8.448;2022-08-21T02:55:17;57.23;;;12.60;;
8474;SDS011;4274;52.012;8.448;2022-08-21T02:57:45;67.00;;;13.23;;
8474;SDS011;4274;52.012;8.448;2022-08-21T03:00:11;61.83;;;13.57;;
8474;SDS011;4274;52.012;8.448;2022-08-21T03:02:38;55.90;;;12.00;;
8474;SDS011;4274;52.012;8.448;2022-08-21T03:05:05;60.53;;;13.17;;
8474;SDS011;4274;52.012;8.448;2022-08-21T03:07:33;62.70;;;13.50;;
8474;SDS011;4274;52.012;8.448;2022-08-21T03:09:59;60.03;;;13.60;;
8474;SDS011;4274;52.012;8.448;2022-08-21T03:12:25;55.60;;;11.93;;
8474;SDS011;4274;52.012;8.448;2022-08-21T03:14:50;56.77;;;12.47;;
8474;SDS011;4274;52.012;8.448;2022-08-21T03:17:16;59.50;;;13.10;;
8474;SDS011;4274;52.012;8.448;2022-08-21T03:19:41;60.07;;;14.00;;
8474;SDS011;4274;52.012;8.448;2022-08-21T03:22:07;59.83;;;14.50;;
8474;SDS011;4274;52.012;8.448;2022-08-21T03:24:33;67.80;;;15.93;;
8474;SDS011;4274;52.012;8.448;2022-08-21T03:26:58;63.73;;;15.13;;
8474;SDS011;4274;52.012;8.448;2022-08-21T03:29:25;63.50;;;15.80;;
8474;SDS011;4274;52.012;8.448;2022-08-21T03:31:50;65.70;;;15.90;;
8474;SDS011;4274;52.012;8.448;2022-08-21T03:34:19;64.93;;;15.17;;
8474;SDS011;4274;52.012;8.448;2022-08-21T03:36:45;64.37;;;16.57;;
8474;SDS011;4274;52.012;8.448;2022-08-21T03:39:10;60.33;;;15.27;;
8474;SDS011;4274;52.012;8.448;2022-08-21T03:41:36;63.20;;;16.00;;
8474;SDS011;4274;52.012;8.448;2022-08-21T03:44:01;61.40;;;16.20;;
8474;SDS011;4274;52.012;8.448;2022-08-21T03:46:27;63.00;;;15.30;;
8474;SDS011;4274;52.012;8.448;2022-08-21T03:48:53;61.07;;;15.20;;
8474;SDS011;4274;52.012;8.448;2022-08-21T03:51:19;62.20;;;15.10;;
8474;SDS011;4274;52.012;8.448;2022-08-21T03:53:44;62.03;;;14.63;;
8474;SDS011;4274;52.012;8.448;2022-08-21T03:56:10;61.20;;;14.80;;
8474;SDS011;4274;52.012;8.448;2022-08-21T03:58:36;72.90;;;16.73;;
8474;SDS011;4274;52.012;8.448;2022-08-21T04:01:03;61.67;;;15.40;;
8474;SDS011;4274;52.012;8.448;2022-08-21T04:03:31;61.60;;;16.17;;
8474;SDS011;4274;52.012;8.448;2022-08-21T04:05:57;61.67;;;14.90;;
8474;SDS011;4274;52.012;8.448;2022-08-21T04:08:22;66.60;;;16.80;;
8474;SDS011;4274;52.012;8.448;2022-08-21T04:10:49;63.73;;;13.73;;
8474;SDS011;4274;52.012;8.448;2022-08-21T04:13:17;60.40;;;14.23;;
8474;SDS011;4274;52.012;8.448;2022-08-21T04:15:43;63.73;;;15.27;;
8474;SDS011;4274;52.012;8.448;2022-08-21T04:18:09;64.03;;;14.17;;
8474;SDS011;4274;52.012;8.448;2022-08-21T04:20:35;62.73;;;14.50;;
8474;SDS011;4274;52.012;8.448;2022-08-21T04:23:01;59.80;;;14.80;;
8474;SDS011;4274;52.012;8.448;2022-08-21T04:25:27;60.40;;;15.10;;
8474;SDS011;4274;52.012;8.448;2022-08-21T04:27:53;62.87;;;15.50;;
8474;SDS011;4274;52.012;8.448;2022-08-21T04:30:19;64.50;;;15.87;;
8474;SDS011;4274;52.012;8.448;2022-08-21T04:32:46;61.00;;;15.17;;
8474;SDS011;4274;52.012;8.448;2022-08-21T04:35:14;59.07;;;13.13;;
8474;SDS011;4274;52.012;8.448;2022-08-21T04:37:41;60.07;;;14.40;;
8474;SDS011;4274;52.012;8.448;2022-08-21T04:40:07;59.73;;;14.23;;
8474;SDS011;4274;52.012;8.448;2022-08-21T04:42:40;62.87;;;14.70;;
8474;SDS011;4274;52.012;8.448;2022-08-21T04:45:07;63.60;;;14.60;;
8474;SDS011;4274;52.012;8.448;2022-08-21T04:47:33;65.07;;;15.77;;
8474;SDS011;4274;52.012;8.448;2022-08-21T04:49:58;64.50;;;15.17;;
8474;SDS011;4274;52.012;8.448;2022-08-21T04:52:24;75.10;;;17.47;;
8474;SDS011;4274;52.012;8.448;2022-08-21T04:54:50;61.70;;;15.20;;
8474;SDS011;4274;52.012;8.448;2022-08-21T04:57:17;61.70;;;15.10;;
8474;SDS011;4274;52.012;8.448;2022-08-21T04:59:47;63.00;;;13.97;;
8474;SDS011;4274;52.012;8.448;2022-08-21T05:02:15;59.73;;;14.60;;
8474;SDS011;4274;52.012;8.448;2022-08-21T05:04:43;70.13;;;16.03;;
8474;SDS011;4274;52.012;8.448;2022-08-21T05:07:12;65.47;;;16.30;;
8474;SDS011;4274;52.012;8.448;2022-08-21T05:09:50;59.97;;;14.67;;
8474;SDS011;4274;52.012;8.448;2022-08-21T05:12:16;60.20;;;14.97;;
8474;SDS011;4274;52.012;8.448;2022-08-21T05:14:42;64.67;;;16.00;;
8474;SDS011;4274;52.012;8.448;2022-08-21T05:17:08;65.63;;;16.13;;
8474;SDS011;4274;52.012;8.448;2022-08-21T05:19:34;64.80;;;15.43;;
8474;SDS011;4274;52.012;8.448;2022-08-21T05:22:00;63.97;;;15.20;;
8474;SDS011;4274;52.012;8.448;2022-08-21T05:24:26;63.00;;;15.60;;
8474;SDS011;4274;52.012;8.448;2022-08-21T05:26:53;63.80;;;14.40;;
8474;SDS011;4274;52.012;8.448;2022-08-21T05:29:18;63.37;;;15.20;;
8474;SDS011;4274;52.012;8.448;2022-08-21T05:31:45;76.77;;;16.27;;
8474;SDS011;4274;52.012;8.448;2022-08-21T05:34:12;64.80;;;17.70;;
8474;SDS011;4274;52.012;8.448;2022-08-21T05:36:40;65.43;;;16.97;;
8474;SDS011;4274;52.012;8.448;2022-08-21T05:39:05;65.30;;;16.03;;
8474;SDS011;4274;52.012;8.448;2022-08-21T05:41:31;65.20;;;16.00;;
8474;SDS011;4274;52.012;8.448;2022-08-21T05:43:56;60.07;;;15.37;;
8474;SDS011;4274;52.012;8.448;2022-08-21T05:46:22;62.77;;;16.70;;
8474;SDS011;4274;52.012;8.448;2022-08-21T05:48:47;67.23;;;15.20;;
8474;SDS011;4274;52.012;8.448;2022-08-21T05:51:14;63.67;;;16.90;;
8474;SDS011;4274;52.012;8.448;2022-08-21T05:53:41;61.07;;;16.53;;
8474;SDS011;4274;52.012;8.448;2022-08-21T05:56:08;65.93;;;15.73;;
8474;SDS011;4274;52.012;8.448;2022-08-21T05:58:34;78.23;;;17.60;;
8474;SDS011;4274;52.012;8.448;2022-08-21T06:01:00;68.67;;;16.67;;
8474;SDS011;4274;52.012;8.448;2022-08-21T06:03:32;66.00;;;17.10;;
8474;SDS011;4274;52.012;8.448;2022-08-21T06:05:59;61.57;;;15.17;;
8474;SDS011;4274;52.012;8.448;2022-08-21T06:08:25;64.97;;;16.50;;
8474;SDS011;4274;52.012;8.448;2022-08-21T06:10:52;59.17;;;14.10;;
8474;SDS011;4274;52.012;8.448;2022-08-21T06:13:18;59.03;;;14.23;;
8474;SDS011;4274;52.012;8.448;2022-08-21T06:15:45;69.17;;;14.90;;
8474;SDS011;4274;52.012;8.448;2022-08-21T06:18:11;68.87;;;15.03;;
8474;SDS011;4274;52.012;8.448;2022-08-21T06:20:37;67.63;;;14.60;;
8474;SDS011;4274;52.012;8.448;2022-08-21T06:23:03;60.67;;;15.00;;
8474;SDS011;4274;52.012;8.448;2022-08-21T06:25:29;60.17;;;14.67;;
8474;SDS011;4274;52.012;8.448;2022-08-21T06:28:03;62.87;;;14.73;;
8474;SDS011;4274;52.012;8.448;2022-08-21T06:30:31;59.80;;;14.80;;
8474;SDS011;4274;52.012;8.448;2022-08-21T06:32:57;60.70;;;14.13;;
8474;SDS011;4274;52.012;8.448;2022-08-21T06:35:22;65.87;;;16.83;;
8474;SDS011;4274;52.012;8.448;2022-08-21T06:37:49;63.00;;;15.07;;
8474;SDS011;4274;52.012;8.448;2022-08-21T06:40:15;67.87;;;15.67;;
8474;SDS011;4274;52.012;8.448;2022-08-21T06:42:42;62.30;;;14.70;;
8474;SDS011;4274;52.012;8.448;2022-08-21T06:45:07;64.90;;;14.13;;
8474;SDS011;4274;52.012;8.448;2022-08-21T06:47:34;66.17;;;16.70;;
8474;SDS011;4274;52.012;8.448;2022-08-21T06:49:59;63.13;;;15.17;;
8474;SDS011;4274;52.012;8.448;2022-08-21T06:52:25;62.30;;;14.80;;
8474;SDS011;4274;52.012;8.448;2022-08-21T06:54:50;64.70;;;14.00;;
8474;SDS011;4274;52.012;8.448;2022-08-21T06:57:16;63.27;;;15.37;;
8474;SDS011;4274;52.012;8.448;2022-08-21T06:59:41;64.90;;;13.63;;
8474;SDS011;4274;52.012;8.448;2022-08-21T07:02:07;62.80;;;13.80;;
8474;SDS011;4274;52.012;8.448;2022-08-21T07:04:33;65.23;;;12.53;;
8474;SDS011;4274;52.012;8.448;2022-08-21T07:06:58;67.10;;;12.63;;
8474;SDS011;4274;52.012;8.448;2022-08-21T07:09:24;63.63;;;12.60;;
8474;SDS011;4274;52.012;8.448;2022-08-21T07:11:50;63.40;;;11.77;;
8474;SDS011;4274;52.012;8.448;2022-08-21T07:14:18;67.77;;;11.70;;
8474;SDS011;4274;52.012;8.448;2022-08-21T07:16:44;63.13;;;11.20;;
8474;SDS011;4274;52.012;8.448;2022-08-21T07:19:10;58.13;;;11.10;;
8474;SDS011;4274;52.012;8.448;2022-08-21T07:21:35;59.20;;;11.37;;
8474;SDS011;4274;52.012;8.448;2022-08-21T07:24:01;66.57;;;12.30;;
8474;SDS011;4274;52.012;8.448;2022-08-21T07:26:27;66.30;;;13.30;;
8474;SDS011;4274;52.012;8.448;2022-08-21T07:28:53;71.47;;;15.60;;
8474;SDS011;4274;52.012;8.448;2022-08-21T07:31:20;62.60;;;14.50;;
8474;SDS011;4274;52.012;8.448;2022-08-21T07:33:48;61.87;;;12.50;;
8474;SDS011;4274;52.012;8.448;2022-08-21T07:36:13;57.53;;;11.00;;
8474;SDS011;4274;52.012;8.448;2022-08-21T07:38:39;66.53;;;11.37;;
8474;SDS011;4274;52.012;8.448;2022-08-21T07:41:07;62.40;;;11.40;;
8474;SDS011;4274;52.012;8.448;2022-08-21T07:43:39;62.03;;;10.83;;
8474;SDS011;4274;52.012;8.448;2022-08-21T07:46:05;63.87;;;11.20;;
8474;SDS011;4274;52.012;8.448;2022-08-21T07:48:30;61.70;;;10.60;;
8474;SDS011;4274;52.012;8.448;2022-08-21T07:50:56;59.40;;;9.30;;
8474;SDS011;4274;52.012;8.448;2022-08-21T07:53:23;64.57;;;9.77;;
8474;SDS011;4274;52.012;8.448;2022-08-21T07:55:48;60.33;;;10.30;;
8474;SDS011;4274;52.012;8.448;2022-08-21T07:58:14;58.77;;;9.40;;
8474;SDS011;4274;52.012;8.448;2022-08-21T08:00:40;61.70;;;9.47;;
8474;SDS011;4274;52.012;8.448;2022-08-21T08:03:06;54.10;;;7.83;;
8474;SDS011;4274;52.012;8.448;2022-08-21T08:05:32;54.27;;;7.40;;
8474;SDS011;4274;52.012;8.448;2022-08-21T08:07:57;62.00;;;7.90;;
8474;SDS011;4274;52.012;8.448;2022-08-21T08:10:23;59.90;;;7.90;;
8474;SDS011;4274;52.012;8.448;2022-08-21T08:12:50;57.60;;;7.67;;
8474;SDS011;4274;52.012;8.448;2022-08-21T08:15:17;57.40;;;7.30;;
8474;SDS011;4274;52.012;8.448;2022-08-21T08:17:45;50.37;;;5.27;;
8474;SDS011;4274;52.012;8.448;2022-08-21T08:20:11;55.63;;;5.60;;
8474;SDS011;4274;52.012;8.448;2022-08-21T08:22:40;54.37;;;5.10;;
8474;SDS011;4274;52.012;8.448;2022-08-21T08:25:07;51.20;;;4.73;;
8474;SDS011;4274;52.012;8.448;2022-08-21T08:27:34;60.38;;;5.20;;
8474;SDS011;4274;52.012;8.448;2022-08-21T08:29:59;53.80;;;4.97;;
8474;SDS011;4274;52.012;8.448;2022-08-21T08:32:25;52.17;;;4.83;;
8474;SDS011;4274;52.012;8.448;2022-08-21T08:34:51;53.77;;;4.53;;
8474;SDS011;4274;52.012;8.448;2022-08-21T08:37:17;58.07;;;4.90;;
8474;SDS011;4274;52.012;8.448;2022-08-21T08:39:44;54.50;;;4.87;;
8474;SDS011;4274;52.012;8.448;2022-08-21T08:42:12;52.83;;;4.23;;
8474;SDS011;4274;52.012;8.448;2022-08-21T08:44:45;57.10;;;5.93;;
8474;SDS011;4274;52.012;8.448;2022-08-21T08:47:13;56.03;;;5.67;;
8474;SDS011;4274;52.012;8.448;2022-08-21T08:52:28;51.63;;;4.23;;
8474;SDS011;4274;52.012;8.448;2022-08-21T08:57:30;54.70;;;4.70;;
8474;SDS011;4274;52.012;8.448;2022-08-21T08:59:58;51.73;;;4.30;;
8474;SDS011;4274;52.012;8.448;2022-08-21T09:02:25;53.37;;;4.20;;
8474;SDS011;4274;52.012;8.448;2022-08-21T09:04:54;53.23;;;4.70;;
8474;SDS011;4274;52.012;8.448;2022-08-21T09:13:24;56.53;;;4.87;;
8474;SDS011;4274;52.012;8.448;2022-08-21T09:26:57;52.27;;;3.90;;
8474;SDS011;4274;52.012;8.448;2022-08-21T09:29:33;53.27;;;4.10;;
8474;SDS011;4274;52.012;8.448;2022-08-21T09:32:03;58.30;;;4.23;;
8474;SDS011;4274;52.012;8.448;2022-08-21T09:34:38;54.77;;;3.73;;
8474;SDS011;4274;52.012;8.448;2022-08-21T09:37:04;51.57;;;3.70;;
8474;SDS011;4274;52.012;8.448;2022-08-21T09:39:31;53.80;;;3.90;;
8474;SDS011;4274;52.012;8.448;2022-08-21T09:42:04;53.80;;;3.90;;
8474;SDS011;4274;52.012;8.448;2022-08-21T09:44:33;54.03;;;4.20;;
8474;SDS011;4274;52.012;8.448;2022-08-21T09:47:04;53.83;;;4.63;;
8474;SDS011;4274;52.012;8.448;2022-08-21T09:49:32;55.53;;;4.80;;
8474;SDS011;4274;52.012;8.448;2022-08-21T09:52:00;53.80;;;4.50;;
8474;SDS011;4274;52.012;8.448;2022-08-21T09:54:34;55.10;;;4.50;;
8474;SDS011;4274;52.012;8.448;2022-08-21T09:57:14;57.77;;;4.77;;
8474;SDS011;4274;52.012;8.448;2022-08-21T10:00:49;57.00;;;4.50;;
8474;SDS011;4274;52.012;8.448;2022-08-21T10:03:08;53.30;;;3.77;;
8474;SDS011;4274;52.012;8.448;2022-08-21T10:05:57;53.40;;;3.97;;
8474;SDS011;4274;52.012;8.448;2022-08-21T10:08:26;59.30;;;4.30;;
8474;SDS011;4274;52.012;8.448;2022-08-21T10:10:55;57.20;;;4.50;;
8474;SDS011;4274;52.012;8.448;2022-08-21T10:27:09;53.03;;;2.80;;
8474;SDS011;4274;52.012;8.448;2022-08-21T10:30:21;51.80;;;2.70;;
8474;SDS011;4274;52.012;8.448;2022-08-21T10:32:50;56.07;;;2.83;;
8474;SDS011;4274;52.012;8.448;2022-08-21T10:35:28;54.60;;;3.00;;
8474;SDS011;4274;52.012;8.448;2022-08-21T10:40:26;59.40;;;2.87;;
8474;SDS011;4274;52.012;8.448;2022-08-21T10:43:04;50.70;;;2.47;;
8474;SDS011;4274;52.012;8.448;2022-08-21T10:45:52;50.40;;;2.47;;
8474;SDS011;4274;52.012;8.448;2022-08-21T10:48:35;52.83;;;3.17;;
8474;SDS011;4274;52.012;8.448;2022-08-21T10:51:24;53.10;;;3.10;;
8474;SDS011;4274;52.012;8.448;2022-08-21T10:56:49;52.70;;;2.57;;
8474;SDS011;4274;52.012;8.448;2022-08-21T11:02:07;49.20;;;2.50;;
8474;SDS011;4274;52.012;8.448;2022-08-21T11:04:40;53.67;;;3.17;;
8474;SDS011;4274;52.012;8.448;2022-08-21T11:07:11;60.40;;;3.57;;
8474;SDS011;4274;52.012;8.448;2022-08-21T11:09:45;52.67;;;3.70;;
8474;SDS011;4274;52.012;8.448;2022-08-21T11:12:22;54.60;;;3.10;;
8474;SDS011;4274;52.012;8.448;2022-08-21T11:17:53;51.80;;;3.50;;
8474;SDS011;4274;52.012;8.448;2022-08-21T11:20:38;52.10;;;3.37;;
8474;SDS011;4274;52.012;8.448;2022-08-21T11:23:11;54.73;;;3.73;;
8474;SDS011;4274;52.012;8.448;2022-08-21T11:25:52;50.37;;;3.17;;
8474;SDS011;4274;52.012;8.448;2022-08-21T11:28:26;53.60;;;3.73;;
8474;SDS011;4274;52.012;8.448;2022-08-21T11:38:34;52.80;;;3.10;;
8474;SDS011;4274;52.012;8.448;2022-08-21T11:42:06;54.90;;;3.47;;
8474;SDS011;4274;52.012;8.448;2022-08-21T11:44:19;50.90;;;3.03;;
8474;SDS011;4274;52.012;8.448;2022-08-21T11:46:49;53.87;;;3.20;;
8474;SDS011;4274;52.012;8.448;2022-08-21T11:49:22;52.10;;;3.03;;
8474;SDS011;4274;52.012;8.448;2022-08-21T11:52:07;53.23;;;3.40;;
8474;SDS011;4274;52.012;8.448;2022-08-21T11:54:57;53.77;;;3.97;;
8474;SDS011;4274;52.012;8.448;2022-08-21T11:57:43;57.50;;;3.83;;
8474;SDS011;4274;52.012;8.448;2022-08-21T12:00:19;52.10;;;3.63;;
8474;SDS011;4274;52.012;8.448;2022-08-21T12:08:44;56.70;;;3.47;;
8474;SDS011;4274;52.012;8.448;2022-08-21T12:14:11;53.50;;;3.70;;
8474;SDS011;4274;52.012;8.448;2022-08-21T12:16:40;51.10;;;2.90;;
8474;SDS011;4274;52.012;8.448;2022-08-21T12:24:28;56.23;;;3.20;;
8474;SDS011;4274;52.012;8.448;2022-08-21T12:29:58;52.57;;;3.17;;
8474;SDS011;4274;52.012;8.448;2022-08-21T12:32:27;51.10;;;3.20;;
8474;SDS011;4274;52.012;8.448;2022-08-21T12:35:01;52.60;;;3.33;;
8474;SDS011;4274;52.012;8.448;2022-08-21T12:37:31;54.53;;;2.93;;
8474;SDS011;4274;52.012;8.448;2022-08-21T12:40:00;53.07;;;3.20;;
8474;SDS011;4274;52.012;8.448;2022-08-21T12:42:34;52.17;;;2.70;;
8474;SDS011;4274;52.012;8.448;2022-08-21T12:45:06;54.10;;;3.13;;
8474;SDS011;4274;52.012;8.448;2022-08-21T12:47:49;48.60;;;2.37;;
8474;SDS011;4274;52.012;8.448;2022-08-21T12:56:03;51.77;;;2.70;;
8474;SDS011;4274;52.012;8.448;2022-08-21T12:58:33;51.80;;;2.73;;
8474;SDS011;4274;52.012;8.448;2022-08-21T13:01:02;51.57;;;2.90;;
8474;SDS011;4274;52.012;8.448;2022-08-21T13:03:30;50.70;;;2.20;;
8474;SDS011;4274;52.012;8.448;2022-08-21T13:05:57;50.30;;;2.40;;
8474;SDS011;4274;52.012;8.448;2022-08-21T13:08:23;54.80;;;2.83;;
8474;SDS011;4274;52.012;8.448;2022-08-21T13:10:55;52.07;;;2.20;;
8474;SDS011;4274;52.012;8.448;2022-08-21T13:13:27;50.33;;;2.40;;
8474;SDS011;4274;52.012;8.448;2022-08-21T13:16:02;49.80;;;2.30;;
8474;SDS011;4274;52.012;8.448;2022-08-21T13:18:30;56.10;;;2.30;;
8474;SDS011;4274;52.012;8.448;2022-08-21T13:21:09;53.47;;;2.97;;
8474;SDS011;4274;52.012;8.448;2022-08-21T13:23:40;51.83;;;3.20;;
8474;SDS011;4274;52.012;8.448;2022-08-21T13:26:19;55.43;;;2.37;;
8474;SDS011;4274;52.012;8.448;2022-08-21T13:28:47;51.43;;;2.60;;
8474;SDS011;4274;52.012;8.448;2022-08-21T13:31:22;50.50;;;2.40;;
8474;SDS011;4274;52.012;8.448;2022-08-21T13:33:51;53.67;;;2.60;;
8474;SDS011;4274;52.012;8.448;2022-08-21T13:36:29;49.93;;;2.63;;
8474;SDS011;4274;52.012;8.448;2022-08-21T13:38:59;59.13;;;3.00;;
8474;SDS011;4274;52.012;8.448;2022-08-21T13:41:26;49.47;;;2.40;;
8474;SDS011;4274;52.012;8.448;2022-08-21T13:43:56;53.73;;;3.33;;
8474;SDS011;4274;52.012;8.448;2022-08-21T13:46:26;50.00;;;2.80;;
8474;SDS011;4274;52.012;8.448;2022-08-21T13:48:55;51.17;;;3.33;;
8474;SDS011;4274;52.012;8.448;2022-08-21T13:51:23;54.80;;;3.00;;
8474;SDS011;4274;52.012;8.448;2022-08-21T13:53:49;52.70;;;2.40;;
8474;SDS011;4274;52.012;8.448;2022-08-21T13:58:49;52.93;;;3.47;;
8474;SDS011;4274;52.012;8.448;2022-08-21T14:01:19;51.97;;;3.40;;
8474;SDS011;4274;52.012;8.448;2022-08-21T14:03:55;51.00;;;3.00;;
8474;SDS011;4274;52.012;8.448;2022-08-21T14:06:27;51.03;;;2.63;;
8474;SDS011;4274;52.012;8.448;2022-08-21T14:08:59;56.60;;;2.80;;
8474;SDS011;4274;52.012;8.448;2022-08-21T14:11:32;53.97;;;3.03;;
8474;SDS011;4274;52.012;8.448;2022-08-21T14:14:00;49.60;;;2.50;;
8474;SDS011;4274;52.012;8.448;2022-08-21T14:16:41;54.50;;;2.93;;
8474;SDS011;4274;52.012;8.448;2022-08-21T14:19:22;48.30;;;2.27;;
8474;SDS011;4274;52.012;8.448;2022-08-21T14:21:50;51.73;;;2.30;;
8474;SDS011;4274;52.012;8.448;2022-08-21T14:26:49;48.80;;;2.10;;
8474;SDS011;4274;52.012;8.448;2022-08-21T14:29:17;51.70;;;2.60;;
8474;SDS011;4274;52.012;8.448;2022-08-21T14:31:52;51.77;;;2.37;;
8474;SDS011;4274;52.012;8.448;2022-08-21T14:34:24;50.00;;;2.17;;
8474;SDS011;4274;52.012;8.448;2022-08-21T14:36:52;47.90;;;2.00;;
8474;SDS011;4274;52.012;8.448;2022-08-21T14:39:18;49.10;;;2.20;;
8474;SDS011;4274;52.012;8.448;2022-08-21T14:41:44;50.50;;;2.73;;
8474;SDS011;4274;52.012;8.448;2022-08-21T14:44:12;50.10;;;2.20;;
8474;SDS011;4274;52.012;8.448;2022-08-21T14:46:38;52.87;;;2.50;;
8474;SDS011;4274;52.012;8.448;2022-08-21T14:49:04;58.30;;;2.80;;
8474;SDS011;4274;52.012;8.448;2022-08-21T14:51:29;48.40;;;2.20;;
8474;SDS011;4274;52.012;8.448;2022-08-21T14:53:55;48.30;;;2.33;;
8474;SDS011;4274;52.012;8.448;2022-08-21T14:56:21;48.60;;;2.53;;
8474;SDS011;4274;52.012;8.448;2022-08-21T14:58:48;48.97;;;1.97;;
8474;SDS011;4274;52.012;8.448;2022-08-21T15:01:15;49.70;;;2.40;;
8474;SDS011;4274;52.012;8.448;2022-08-21T15:03:43;49.17;;;2.90;;
8474;SDS011;4274;52.012;8.448;2022-08-21T15:06:10;49.93;;;2.20;;
8474;SDS011;4274;52.012;8.448;2022-08-21T15:08:36;47.93;;;2.57;;
8474;SDS011;4274;52.012;8.448;2022-08-21T15:11:02;52.03;;;2.37;;
8474;SDS011;4274;52.012;8.448;2022-08-21T15:13:29;47.90;;;2.00;;
8474;SDS011;4274;52.012;8.448;2022-08-21T15:15:56;48.87;;;2.13;;
8474;SDS011;4274;52.012;8.448;2022-08-21T15:18:23;48.20;;;1.90;;
8474;SDS011;4274;52.012;8.448;2022-08-21T15:20:50;47.97;;;2.47;;
8474;SDS011;4274;52.012;8.448;2022-08-21T15:23:16;49.37;;;2.10;;
8474;SDS011;4274;52.012;8.448;2022-08-21T15:25:42;53.33;;;2.27;;
8474;SDS011;4274;52.012;8.448;2022-08-21T15:28:10;50.63;;;2.10;;
8474;SDS011;4274;52.012;8.448;2022-08-21T15:30:36;51.13;;;2.37;;
8474;SDS011;4274;52.012;8.448;2022-08-21T15:33:04;47.87;;;1.93;;
8474;SDS011;4274;52.012;8.448;2022-08-21T15:35:30;49.97;;;2.37;;
8474;SDS011;4274;52.012;8.448;2022-08-21T15:37:56;49.33;;;1.80;;
8474;SDS011;4274;52.012;8.448;2022-08-21T15:40:22;48.23;;;2.00;;
8474;SDS011;4274;52.012;8.448;2022-08-21T15:42:48;48.23;;;1.90;;
8474;SDS011;4274;52.012;8.448;2022-08-21T15:45:17;49.30;;;2.10;;
8474;SDS011;4274;52.012;8.448;2022-08-21T15:47:43;54.70;;;2.47;;
8474;SDS011;4274;52.012;8.448;2022-08-21T15:50:11;52.00;;;2.20;;
8474;SDS011;4274;52.012;8.448;2022-08-21T15:52:37;49.03;;;2.07;;
8474;SDS011;4274;52.012;8.448;2022-08-21T15:55:04;49.10;;;1.90;;
8474;SDS011;4274;52.012;8.448;2022-08-21T15:57:30;52.20;;;2.13;;
8474;SDS011;4274;52.012;8.448;2022-08-21T15:59:57;51.67;;;2.20;;
8474;SDS011;4274;52.012;8.448;2022-08-21T16:02:34;50.50;;;2.00;;
8474;SDS011;4274;52.012;8.448;2022-08-21T16:05:00;51.70;;;2.13;;
8474;SDS011;4274;52.012;8.448;2022-08-21T16:07:26;49.50;;;1.90;;
8474;SDS011;4274;52.012;8.448;2022-08-21T16:09:51;48.80;;;2.33;;
8474;SDS011;4274;52.012;8.448;2022-08-21T16:12:27;48.27;;;2.13;;
8474;SDS011;4274;52.012;8.448;2022-08-21T16:14:59;50.87;;;2.33;;
8474;SDS011;4274;52.012;8.448;2022-08-21T16:17:31;49.90;;;1.77;;
8474;SDS011;4274;52.012;8.448;2022-08-21T16:19:59;51.67;;;2.20;;
8474;SDS011;4274;52.012;8.448;2022-08-21T16:22:28;49.60;;;2.17;;
8474;SDS011;4274;52.012;8.448;2022-08-21T16:24:54;49.87;;;2.53;;
8474;SDS011;4274;52.012;8.448;2022-08-21T16:27:19;52.17;;;2.40;;
8474;SDS011;4274;52.012;8.448;2022-08-21T16:29:45;48.30;;;1.80;;